Time;durP1;ratioP1;P1;durP2;ratioP2;P2;SDS_P1;SDS_P2;PMS_P1;PMS_P2;Temp;Humidity;BMP_temperature;BMP_pressure;BME280_temperature;BME280_humidity;BME280_pressure;Samples;Min_cycle;Max_cycle;Signal;HPM_P1;HPM_P2
2021/03/19 00:01:42;;;;;;;0.75;0.75;;;16.60;70.20;;;;;;5094377;28;20039;-73
2021/03/19 00:04:09;;;;;;;1.35;1.25;;;16.60;69.70;;;;;;5099580;28;20045;-72
2021/03/19 00:06:36;;;;;;;1.45;0.80;;;16.40;70.60;;;;;;5092711;28;20024;-73
2021/03/19 00:09:06;;;;;;;10.50;6.15;;;16.20;71.40;;;;;;5096185;28;20346;-72
2021/03/19 00:11:33;;;;;;;3.42;1.60;;;16.20;71.80;;;;;;5087687;28;20334;-73
2021/03/19 00:14:00;;;;;;;2.50;0.80;;;16.10;71.90;;;;;;5093212;28;20036;-72
2021/03/19 00:16:27;;;;;;;2.40;1.00;;;16.10;72.60;;;;;;5102968;28;20024;-73
2021/03/19 00:18:54;;;;;;;3.92;1.30;;;16.00;72.90;;;;;;5102816;28;20077;-72
2021/03/19 00:21:20;;;;;;;1.40;1.30;;;16.00;72.70;;;;;;5099384;28;20058;-74
2021/03/19 00:23:47;;;;;;;3.28;1.00;;;16.10;72.50;;;;;;5086481;28;20028;-75
2021/03/19 00:26:14;;;;;;;1.02;1.00;;;16.10;72.10;;;;;;5096979;28;20025;-73
2021/03/19 00:28:40;;;;;;;1.40;1.30;;;16.10;72.40;;;;;;5096054;28;20173;-74
2021/03/19 00:31:06;;;;;;;1.23;1.05;;;16.40;70.80;;;;;;5101028;28;20055;-73
2021/03/19 00:33:33;;;;;;;1.50;0.90;;;16.30;71.20;;;;;;5102498;28;20020;-71
2021/03/19 00:35:59;;;;;;;1.02;1.02;;;16.20;71.30;;;;;;5102212;28;20117;-74
2021/03/19 00:38:26;;;;;;;1.55;1.45;;;16.10;72.20;;;;;;5105086;28;20034;-74
2021/03/19 00:40:52;;;;;;;0.80;0.80;;;16.10;72.00;;;;;;5101614;28;20030;-73
2021/03/19 00:43:19;;;;;;;2.10;1.13;;;16.40;71.00;;;;;;5105483;28;20039;-73
2021/03/19 00:45:46;;;;;;;2.00;1.35;;;16.30;70.20;;;;;;5100085;28;20341;-74
2021/03/19 00:48:13;;;;;;;2.08;1.60;;;16.20;71.60;;;;;;5101686;28;20015;-74
2021/03/19 00:50:41;;;;;;;4.18;3.85;;;16.10;70.90;;;;;;5104296;28;20028;-73
2021/03/19 00:53:07;;;;;;;3.00;2.70;;;16.20;70.50;;;;;;5104860;28;20389;-72
2021/03/19 00:55:34;;;;;;;4.82;4.43;;;16.20;70.50;;;;;;5104289;28;20423;-72
2021/03/19 00:58:01;;;;;;;1.60;1.50;;;16.20;70.50;;;;;;5102877;28;20115;-73
2021/03/19 01:00:31;;;;;;;3.67;1.88;;;16.10;70.50;;;;;;5105297;28;20453;-71
2021/03/19 01:02:57;;;;;;;5.72;4.25;;;16.00;71.10;;;;;;5104823;28;20102;-72
2021/03/19 01:05:26;;;;;;;4.43;3.47;;;16.00;70.60;;;;;;5106070;28;20081;-73
2021/03/19 01:07:53;;;;;;;1.48;1.38;;;16.10;70.20;;;;;;5102986;28;20111;-73
2021/03/19 01:10:29;;;;;;;3.28;1.70;;;16.00;70.20;;;;;;5095846;28;20032;-72
2021/03/19 01:12:57;;;;;;;2.85;1.48;;;16.10;70.20;;;;;;5102966;28;20026;-72
2021/03/19 01:15:24;;;;;;;1.20;1.15;;;16.10;70.40;;;;;;5102975;28;20469;-73
2021/03/19 01:17:51;;;;;;;1.30;1.20;;;16.10;70.00;;;;;;5089499;28;20040;-73
2021/03/19 01:20:19;;;;;;;1.08;0.98;;;15.90;70.60;;;;;;5099037;28;20110;-72
2021/03/19 01:22:46;;;;;;;1.40;1.30;;;15.80;71.20;;;;;;5086791;28;20019;-72
2021/03/19 01:25:18;;;;;;;1.00;1.00;;;15.90;71.50;;;;;;5095429;28;20028;-73
2021/03/19 01:27:45;;;;;;;3.25;2.95;;;15.80;71.10;;;;;;5096823;28;20027;-73
2021/03/19 01:30:18;;;;;;;6.68;4.63;;;15.80;71.50;;;;;;5096603;28;20047;-74
2021/03/19 01:32:46;;;;;;;4.38;2.83;;;15.70;71.40;;;;;;5099709;28;20024;-73
2021/03/19 01:35:14;;;;;;;2.30;2.10;;;15.80;71.10;;;;;;5091445;28;20024;-73
2021/03/19 01:37:42;;;;;;;2.17;1.98;;;15.70;71.70;;;;;;5086783;28;20039;-74
2021/03/19 01:40:10;;;;;;;4.05;2.45;;;15.60;72.00;;;;;;5094996;28;20016;-73
2021/03/19 01:42:44;;;;;;;1.90;1.70;;;15.70;71.60;;;;;;5094958;28;20062;-74
2021/03/19 01:45:20;;;;;;;1.98;1.80;;;16.00;70.70;;;;;;5087470;28;20458;-73
2021/03/19 01:48:24;;;;;;;5.18;3.03;;;15.90;70.30;;;;;;5086130;28;20028;-73
2021/03/19 01:51:27;;;;;;;1.80;1.63;;;15.80;70.40;;;;;;5096286;28;20496;-73
2021/03/19 01:54:31;;;;;;;3.20;1.65;;;15.90;70.20;;;;;;5095977;28;20035;-73
2021/03/19 01:57:34;;;;;;;2.65;1.60;;;15.80;70.20;;;;;;5094698;28;20043;-74
2021/03/19 02:00:38;;;;;;;3.83;1.60;;;15.90;70.30;;;;;;5097389;28;20160;-73
2021/03/19 02:03:41;;;;;;;1.50;1.40;;;15.80;70.10;;;;;;5103946;28;20023;-73
2021/03/19 02:06:45;;;;;;;1.50;1.40;;;15.70;70.80;;;;;;5100602;28;20180;-74
2021/03/19 02:09:50;;;;;;;1.70;1.00;;;15.60;70.90;;;;;;5103874;28;20054;-74
2021/03/19 02:12:53;;;;;;;1.67;1.40;;;15.70;70.60;;;;;;5092162;28;20076;-73
2021/03/19 02:15:57;;;;;;;4.70;1.63;;;15.80;70.60;;;;;;5096390;28;20031;-74
2021/03/19 02:19:00;;;;;;;1.35;0.90;;;15.90;70.90;;;;;;5095568;28;20107;-73
2021/03/19 02:22:04;;;;;;;6.60;1.73;;;15.80;70.50;;;;;;5099908;28;20103;-73
2021/03/19 02:25:08;;;;;;;1.48;1.30;;;15.60;71.50;;;;;;5100140;28;20087;-74
2021/03/19 02:28:11;;;;;;;1.40;1.30;;;15.60;70.90;;;;;;5101902;28;20334;-73
2021/03/19 02:31:12;;;;;;;5.55;1.50;;;15.50;71.50;;;;;;5099758;28;20038;-77
2021/03/19 02:33:54;;;;;;;3.28;1.40;;;15.50;71.40;;;;;;5097547;28;20081;-73
2021/03/19 02:36:24;;;;;;;3.35;1.73;;;15.50;70.80;;;;;;5097368;28;20107;-74
2021/03/19 02:38:50;;;;;;;2.90;1.48;;;15.50;70.80;;;;;;5098067;28;20040;-74
2021/03/19 02:41:17;;;;;;;3.15;1.10;;;15.30;71.00;;;;;;5096529;28;20028;-74
2021/03/19 02:43:43;;;;;;;1.77;1.27;;;15.20;71.60;;;;;;5102565;28;20023;-73
2021/03/19 02:46:11;;;;;;;2.35;1.75;;;15.10;72.10;;;;;;5101003;28;20011;-74
2021/03/19 02:48:38;;;;;;;2.30;1.10;;;15.10;72.30;;;;;;5101850;28;20027;-73
2021/03/19 02:51:06;;;;;;;2.92;1.48;;;15.10;72.10;;;;;;5101308;28;20019;-74
2021/03/19 02:53:35;;;;;;;2.25;1.20;;;15.20;71.80;;;;;;5099532;28;20032;-73
2021/03/19 02:56:07;;;;;;;4.05;1.58;;;15.10;72.10;;;;;;5103075;28;20115;-74
2021/03/19 02:58:33;;;;;;;4.18;1.50;;;15.10;72.60;;;;;;5102473;28;20016;-73
2021/03/19 03:01:00;;;;;;;3.00;1.35;;;15.10;72.10;;;;;;5099699;28;20032;-74
2021/03/19 03:03:26;;;;;;;5.43;1.67;;;15.30;71.20;;;;;;5103022;28;20035;-73
2021/03/19 03:05:53;;;;;;;3.65;1.83;;;15.50;70.40;;;;;;5102555;28;20027;-73
2021/03/19 03:08:21;;;;;;;1.50;1.40;;;15.50;70.40;;;;;;5101120;28;20044;-73
2021/03/19 03:10:49;;;;;;;2.40;1.55;;;15.50;70.10;;;;;;5101326;28;20393;-73
2021/03/19 03:13:15;;;;;;;3.45;1.35;;;15.60;70.00;;;;;;5101862;28;20027;-73
2021/03/19 03:15:43;;;;;;;1.92;1.60;;;15.60;69.70;;;;;;5094143;28;20365;-72
2021/03/19 03:18:11;;;;;;;2.15;1.20;;;15.50;70.10;;;;;;5098167;28;20024;-74
2021/03/19 03:20:42;;;;;;;4.63;2.03;;;15.50;70.30;;;;;;5097046;28;20102;-73
2021/03/19 03:23:08;;;;;;;3.45;1.20;;;15.50;70.30;;;;;;5103157;28;20031;-73
2021/03/19 03:25:37;;;;;;;3.05;1.33;;;15.50;70.40;;;;;;5101273;28;20325;-72
2021/03/19 03:28:04;;;;;;;2.35;2.15;;;15.60;70.40;;;;;;5100950;28;20349;-72
2021/03/19 03:30:45;;;;;;;9.27;2.08;;;15.50;69.90;;;;;;5101678;28;20028;-73
2021/03/19 03:33:13;;;;;;;0.80;0.80;;;15.40;70.20;;;;;;5104438;28;20050;-71
2021/03/19 03:35:41;;;;;;;1.70;1.35;;;15.40;70.20;;;;;;5103534;28;20020;-72
2021/03/19 03:38:11;;;;;;;2.25;1.10;;;15.50;70.10;;;;;;5104094;28;20035;-74
2021/03/19 03:40:45;;;;;;;3.42;1.63;;;15.50;70.40;;;;;;5100784;28;20029;-73
2021/03/19 03:43:14;;;;;;;4.07;1.42;;;15.40;70.30;;;;;;5099192;28;20470;-71
2021/03/19 03:45:43;;;;;;;3.97;1.40;;;15.20;70.80;;;;;;5100266;28;20090;-73
2021/03/19 03:48:11;;;;;;;3.00;1.50;;;15.10;71.00;;;;;;5114892;28;20114;-73
2021/03/19 03:50:39;;;;;;;2.05;1.55;;;15.00;71.50;;;;;;5100395;28;20050;-73
2021/03/19 03:53:08;;;;;;;1.25;1.13;;;14.90;71.80;;;;;;5101652;28;20146;-73
2021/03/19 03:55:35;;;;;;;2.55;1.25;;;15.00;71.60;;;;;;5101708;28;20338;-73
2021/03/19 03:58:02;;;;;;;1.58;1.33;;;14.90;71.60;;;;;;5100678;28;20035;-73
2021/03/19 04:00:29;;;;;;;1.50;1.35;;;14.90;71.30;;;;;;5098679;28;20349;-73
2021/03/19 04:02:55;;;;;;;3.08;1.40;;;14.80;71.70;;;;;;5102405;28;20092;-73
2021/03/19 04:05:31;;;;;;;1.55;1.33;;;14.70;71.80;;;;;;5104837;28;20360;-72
2021/03/19 04:08:19;;;;;;;1.13;1.10;;;14.60;72.20;;;;;;5107905;28;20027;-72
2021/03/19 04:10:46;;;;;;;1.88;1.70;;;14.60;72.10;;;;;;5106094;28;20020;-73
2021/03/19 04:13:13;;;;;;;1.30;1.30;;;14.60;72.10;;;;;;5107903;28;20032;-72
2021/03/19 04:15:41;;;;;;;1.25;1.20;;;14.60;72.10;;;;;;5106452;28;20465;-72
2021/03/19 04:18:11;;;;;;;3.38;1.33;;;14.50;72.10;;;;;;5108154;28;20089;-73
2021/03/19 04:20:39;;;;;;;4.05;1.38;;;14.50;72.00;;;;;;5110856;28;20133;-73
2021/03/19 04:23:06;;;;;;;7.00;1.40;;;14.50;72.00;;;;;;5111644;28;20024;-73
2021/03/19 04:25:33;;;;;;;3.65;1.30;;;14.50;71.70;;;;;;5107762;28;20341;-72
2021/03/19 04:28:04;;;;;;;5.05;1.63;;;14.60;71.30;;;;;;5105694;27;20020;-72
2021/03/19 04:30:35;;;;;;;3.45;1.90;;;14.50;71.10;;;;;;5104494;28;20477;-72
2021/03/19 04:33:02;;;;;;;7.78;3.25;;;14.50;71.10;;;;;;5105592;28;20064;-72
2021/03/19 04:35:30;;;;;;;6.55;3.38;;;14.60;70.70;;;;;;5102491;28;20413;-72
2021/03/19 04:38:00;;;;;;;4.18;1.73;;;14.60;70.80;;;;;;5101673;28;20102;-72
2021/03/19 04:40:27;;;;;;;2.80;1.55;;;14.50;71.30;;;;;;5103819;28;20372;-72
2021/03/19 04:42:56;;;;;;;4.68;1.80;;;14.50;71.10;;;;;;5104224;28;20021;-72
2021/03/19 04:45:24;;;;;;;4.63;2.15;;;14.40;71.00;;;;;;5102605;28;20032;-72
2021/03/19 04:47:53;;;;;;;4.32;1.70;;;14.40;71.20;;;;;;5105137;28;20020;-72
2021/03/19 04:50:22;;;;;;;2.63;1.75;;;14.40;71.20;;;;;;5102539;28;20016;-72
2021/03/19 04:52:48;;;;;;;8.30;2.00;;;14.50;71.10;;;;;;5096640;28;20095;-72
2021/03/19 04:55:15;;;;;;;2.00;1.50;;;14.40;71.60;;;;;;5100248;28;20668;-72
2021/03/19 04:57:42;;;;;;;3.75;2.05;;;14.40;71.70;;;;;;5103414;28;20040;-72
2021/03/19 05:00:11;;;;;;;2.85;1.80;;;14.30;71.90;;;;;;5099864;28;20019;-71
2021/03/19 05:02:44;;;;;;;2.15;1.85;;;14.30;71.80;;;;;;5098073;28;20023;-72
2021/03/19 05:05:16;;;;;;;2.42;1.95;;;14.20;72.40;;;;;;5104067;28;20369;-72
2021/03/19 05:07:43;;;;;;;4.43;2.17;;;14.30;72.00;;;;;;5102252;28;20034;-72
2021/03/19 05:10:11;;;;;;;5.78;1.50;;;14.30;71.40;;;;;;5093233;28;20024;-72
2021/03/19 05:12:37;;;;;;;7.53;2.53;;;14.20;72.20;;;;;;5095721;28;20190;-72
2021/03/19 05:15:05;;;;;;;2.78;1.45;;;14.10;72.50;;;;;;5101810;28;20020;-72
2021/03/19 05:17:33;;;;;;;6.00;1.85;;;14.10;72.60;;;;;;5105920;28;20110;-72
2021/03/19 05:20:01;;;;;;;2.88;1.60;;;14.00;72.50;;;;;;5103122;28;20362;-72
2021/03/19 05:22:27;;;;;;;2.08;1.60;;;14.00;72.50;;;;;;5104376;28;20028;-72
2021/03/19 05:24:54;;;;;;;4.93;2.00;;;13.90;72.40;;;;;;5101590;28;20032;-72
2021/03/19 05:27:21;;;;;;;4.43;2.20;;;13.90;72.20;;;;;;5105103;28;20024;-72
2021/03/19 05:29:47;;;;;;;5.03;1.60;;;13.90;72.20;;;;;;5101055;28;20039;-72
2021/03/19 05:32:14;;;;;;;5.43;2.13;;;13.80;72.20;;;;;;5104346;28;20034;-72
2021/03/19 05:34:40;;;;;;;6.35;2.70;;;13.80;72.10;;;;;;5100809;28;20062;-72
2021/03/19 05:37:07;;;;;;;5.45;2.03;;;13.80;72.00;;;;;;5103722;28;20035;-72
2021/03/19 05:39:33;;;;;;;2.92;2.13;;;13.70;71.90;;;;;;5102547;28;20113;-72
2021/03/19 05:41:59;;;;;;;6.43;2.53;;;13.70;72.30;;;;;;5104128;28;20046;-72
2021/03/19 05:44:29;;;;;;;7.70;2.33;;;13.70;72.30;;;;;;5102484;28;20042;-72
2021/03/19 05:47:02;;;;;;;4.22;1.92;;;13.70;72.40;;;;;;5098863;28;20024;-72
2021/03/19 05:49:34;;;;;;;3.17;2.35;;;13.60;72.80;;;;;;5100507;28;20590;-72
2021/03/19 05:52:13;;;;;;;6.37;2.10;;;13.60;72.80;;;;;;5102415;28;20398;-73
2021/03/19 05:54:43;;;;;;;5.22;1.70;;;13.60;73.00;;;;;;5101757;28;20028;-72
2021/03/19 05:57:23;;;;;;;4.63;2.30;;;13.60;73.00;;;;;;5102147;28;20023;-72
2021/03/19 05:59:51;;;;;;;9.18;2.20;;;13.50;73.30;;;;;;5104793;28;20168;-72
2021/03/19 06:02:34;;;;;;;7.88;2.17;;;13.60;72.90;;;;;;5097136;28;20111;-72
2021/03/19 06:05:24;;;;;;;8.05;2.20;;;13.50;72.90;;;;;;5103800;28;20107;-72
2021/03/19 06:07:56;;;;;;;6.82;2.45;;;13.60;72.30;;;;;;5103411;28;20466;-72
2021/03/19 06:10:22;;;;;;;;;;;13.70;72.40;;;;;;5103513;28;20024;-72
2021/03/19 06:12:52;;;;;;;6.75;3.08;;;13.70;71.70;;;;;;5098157;28;19919;-71
2021/03/19 06:15:34;;;;;;;8.35;2.30;;;13.80;71.80;;;;;;5103000;28;20025;-72
2021/03/19 06:18:04;;;;;;;7.77;3.20;;;13.80;72.60;;;;;;5104676;28;20877;-77
2021/03/19 06:20:31;;;;;;;12.48;5.13;;;13.90;72.00;;;;;;5105578;28;20024;-72
2021/03/19 06:23:17;;;;;;;6.55;3.42;;;13.80;72.50;;;;;;5102882;28;20020;-72
2021/03/19 06:26:25;;;;;;;13.10;4.70;;;13.70;73.00;;;;;;5103706;28;20034;-71
2021/03/19 06:29:04;;;;;;;12.85;5.93;;;13.70;72.60;;;;;;5096273;28;20404;-72
2021/03/19 06:31:32;;;;;;;7.68;3.65;;;13.80;72.40;;;;;;5101958;28;20454;-72
2021/03/19 06:34:09;;;;;;;7.82;4.18;;;13.80;72.70;;;;;;5098829;28;20027;-72
2021/03/19 06:36:53;;;;;;;8.43;2.83;;;13.90;72.90;;;;;;5100409;28;20048;-71
2021/03/19 06:39:44;;;;;;;8.20;3.88;;;13.80;72.30;;;;;;5104517;28;20028;-72
2021/03/19 06:42:29;;;;;;;11.15;3.40;;;13.90;72.70;;;;;;5103176;28;20024;-72
2021/03/19 06:45:06;;;;;;;13.43;4.43;;;13.90;72.80;;;;;;5103152;28;20058;-72
2021/03/19 06:47:57;;;;;;;13.60;3.47;;;14.00;72.60;;;;;;5101972;28;20027;-73
2021/03/19 06:50:23;;;;;;;8.77;2.95;;;14.10;72.10;;;;;;5103475;28;20015;-72
2021/03/19 06:52:51;;;;;;;2.83;1.90;;;14.10;72.50;;;;;;5103501;28;20016;-72
2021/03/19 06:55:43;;;;;;;9.00;3.30;;;14.10;72.90;;;;;;5101470;28;20361;-71
2021/03/19 06:58:09;;;;;;;5.47;2.83;;;14.20;72.20;;;;;;5102785;28;20034;-72
2021/03/19 07:00:42;;;;;;;8.88;4.15;;;14.10;72.50;;;;;;5098280;28;20077;-72
2021/03/19 07:03:21;;;;;;;3.60;2.70;;;14.10;73.00;;;;;;5093879;28;20031;-72
2021/03/19 07:05:56;;;;;;;6.97;3.22;;;14.10;73.20;;;;;;5100433;28;20036;-72
2021/03/19 07:09:02;;;;;;;7.28;2.60;;;14.10;73.10;;;;;;5101296;28;20023;-71
2021/03/19 07:11:57;;;;;;;5.65;2.60;;;14.00;73.90;;;;;;5100518;28;20103;-72
2021/03/19 07:14:55;;;;;;;3.22;2.38;;;14.10;73.40;;;;;;5092248;28;20540;-72
2021/03/19 07:17:39;;;;;;;7.05;2.45;;;14.00;74.30;;;;;;5102203;28;20110;-72
2021/03/19 07:20:33;;;;;;;11.40;2.97;;;14.10;73.80;;;;;;5099899;28;20459;-72
2021/03/19 07:23:19;;;;;;;7.97;2.33;;;14.10;73.20;;;;;;5099522;28;20032;-72
2021/03/19 07:25:57;;;;;;;6.38;2.55;;;14.10;73.30;;;;;;5101076;28;20035;-72
2021/03/19 07:28:52;;;;;;;4.82;2.40;;;14.10;73.30;;;;;;5102583;28;20020;-72
2021/03/19 07:31:46;;;;;;;7.90;2.80;;;14.10;74.10;;;;;;5095174;28;20033;-71
2021/03/19 07:34:27;;;;;;;7.78;2.72;;;14.10;72.90;;;;;;5100828;28;20031;-72
2021/03/19 07:37:29;;;;;;;12.43;2.78;;;14.10;73.20;;;;;;5100694;28;20020;-72
2021/03/19 07:40:11;;;;;;;8.75;3.58;;;13.90;74.50;;;;;;5098250;28;20035;-72
2021/03/19 07:43:01;;;;;;;7.70;3.67;;;14.10;72.90;;;;;;5100957;28;20065;-72
2021/03/19 07:45:57;;;;;;;5.00;2.35;;;14.10;72.80;;;;;;5098102;28;20119;-72
2021/03/19 07:48:31;;;;;;;12.48;3.88;;;14.10;73.30;;;;;;5101502;28;20023;-72
2021/03/19 07:51:14;;;;;;;9.13;2.85;;;14.10;73.90;;;;;;5103797;28;20341;-73
2021/03/19 07:54:02;;;;;;;5.60;2.60;;;14.00;73.90;;;;;;5100238;28;20525;-72
2021/03/19 07:56:46;;;;;;;6.13;3.30;;;14.10;73.90;;;;;;5101876;28;20131;-71
2021/03/19 07:59:23;;;;;;;8.85;2.95;;;14.10;74.10;;;;;;5103041;28;20025;-72
2021/03/19 08:01:58;;;;;;;8.63;2.75;;;14.00;75.00;;;;;;5101622;28;20075;-72
2021/03/19 08:04:45;;;;;;;7.22;2.53;;;14.00;75.30;;;;;;5100207;28;20024;-72
2021/03/19 08:07:26;;;;;;;5.15;2.47;;;14.10;74.80;;;;;;5102137;28;20023;-73
2021/03/19 08:10:03;;;;;;;17.00;3.22;;;14.10;74.50;;;;;;5100699;28;20021;-75
2021/03/19 08:12:33;;;;;;;5.88;2.08;;;14.20;74.20;;;;;;5100836;28;20058;-72
2021/03/19 08:15:14;;;;;;;3.90;2.38;;;14.20;74.00;;;;;;5100633;28;20015;-72
2021/03/19 08:17:59;;;;;;;17.80;3.10;;;14.20;74.10;;;;;;5099843;28;20028;-72
2021/03/19 08:20:40;;;;;;;9.30;2.95;;;14.20;74.50;;;;;;5100453;28;20042;-72
2021/03/19 08:23:30;;;;;;;6.68;3.45;;;14.20;74.80;;;;;;5101620;28;20024;-71
2021/03/19 08:25:57;;;;;;;6.00;2.72;;;14.20;74.60;;;;;;5084619;28;20056;-73
2021/03/19 08:28:33;;;;;;;7.53;2.70;;;14.30;73.70;;;;;;5099375;28;20052;-71
2021/03/19 08:31:28;;;;;;;5.53;2.47;;;14.30;73.90;;;;;;5103443;28;20020;-72
2021/03/19 08:34:12;;;;;;;15.55;3.72;;;14.30;73.90;;;;;;5092786;28;20040;-72
2021/03/19 08:36:45;;;;;;;9.00;3.30;;;14.30;73.40;;;;;;5099975;28;20031;-72
2021/03/19 08:39:30;;;;;;;10.63;3.08;;;14.30;73.40;;;;;;5096583;28;20384;-73
2021/03/19 08:42:12;;;;;;;10.95;3.10;;;14.30;73.10;;;;;;5099546;28;20026;-71
2021/03/19 08:44:40;;;;;;;5.85;3.17;;;14.40;72.90;;;;;;5097100;28;20080;-73
2021/03/19 08:47:23;;;;;;;10.32;3.00;;;14.40;72.80;;;;;;5102507;28;20077;-72
2021/03/19 08:49:53;;;;;;;9.48;2.83;;;14.30;73.20;;;;;;5099404;28;20028;-72
2021/03/19 08:52:41;;;;;;;4.47;2.70;;;14.30;73.10;;;;;;5101144;28;20098;-72
2021/03/19 08:55:13;;;;;;;12.75;4.00;;;14.30;72.70;;;;;;5101646;28;20035;-72
2021/03/19 08:57:43;;;;;;;11.15;3.28;;;14.30;72.30;;;;;;5103533;28;20024;-72
2021/03/19 09:00:32;;;;;;;9.32;2.95;;;14.30;72.50;;;;;;5102183;28;20034;-72
2021/03/19 09:03:02;;;;;;;9.82;3.63;;;14.30;72.40;;;;;;5073012;28;20127;-72
2021/03/19 09:05:33;;;;;;;8.82;3.60;;;14.30;71.80;;;;;;5103493;28;20047;-72
2021/03/19 09:08:25;;;;;;;8.70;3.05;;;14.40;71.70;;;;;;5107504;28;20079;-72
2021/03/19 09:10:51;;;;;;;10.30;3.30;;;14.40;71.60;;;;;;5102406;28;20039;-72
2021/03/19 09:13:21;;;;;;;18.67;4.22;;;14.40;71.50;;;;;;5103416;28;20024;-72
2021/03/19 09:15:50;;;;;;;12.88;3.08;;;14.40;71.50;;;;;;5099490;28;20040;-72
2021/03/19 09:18:38;;;;;;;9.02;3.20;;;14.30;71.80;;;;;;5103178;28;20361;-72
2021/03/19 09:21:09;;;;;;;12.65;2.95;;;14.30;72.20;;;;;;5105330;28;20032;-72
2021/03/19 09:24:00;;;;;;;6.82;3.60;;;14.30;71.80;;;;;;5103524;28;20024;-72
2021/03/19 09:26:29;;;;;;;12.77;2.97;;;14.20;71.60;;;;;;5101601;28;20031;-72
2021/03/19 09:29:39;;;;;;;13.68;3.17;;;14.20;71.70;;;;;;5101903;28;20081;-72
2021/03/19 09:32:36;;;;;;;14.20;4.13;;;14.20;72.00;;;;;;5103320;28;20031;-72
2021/03/19 09:35:11;;;;;;;5.85;3.08;;;14.20;71.80;;;;;;5105189;28;20023;-72
2021/03/19 09:37:38;;;;;;;12.68;3.13;;;14.20;71.70;;;;;;5101083;28;20111;-72
2021/03/19 09:40:07;;;;;;;14.27;2.88;;;14.20;71.70;;;;;;5101245;28;20024;-72
2021/03/19 09:42:38;;;;;;;14.60;4.93;;;14.10;71.80;;;;;;5106377;28;20031;-73
2021/03/19 09:45:07;;;;;;;16.90;3.60;;;14.20;72.00;;;;;;5102730;28;20024;-72
2021/03/19 09:47:37;;;;;;;7.70;3.15;;;14.20;72.00;;;;;;5099339;28;20019;-72
2021/03/19 09:50:12;;;;;;;14.52;5.65;;;14.30;71.90;;;;;;5103467;28;20033;-72
2021/03/19 09:52:39;;;;;;;6.70;3.38;;;14.40;72.40;;;;;;5099015;28;20070;-73
2021/03/19 09:55:17;;;;;;;7.47;3.78;;;14.30;71.50;;;;;;5101369;28;20028;-72
2021/03/19 09:57:44;;;;;;;11.73;2.97;;;14.10;71.80;;;;;;5103310;28;20465;-72
2021/03/19 10:00:28;;;;;;;13.30;3.08;;;14.20;71.80;;;;;;5100181;28;20354;-72
2021/03/19 10:03:11;;;;;;;15.95;3.42;;;14.10;72.00;;;;;;5102361;28;20469;-74
2021/03/19 10:05:43;;;;;;;5.90;2.63;;;14.00;72.20;;;;;;5102502;28;20024;-72
2021/03/19 10:08:32;;;;;;;15.97;3.10;;;14.10;72.40;;;;;;5102808;28;20027;-73
2021/03/19 10:11:06;;;;;;;13.48;3.20;;;14.00;72.30;;;;;;5102188;28;20263;-72
2021/03/19 10:13:34;;;;;;;7.68;3.38;;;14.10;72.40;;;;;;5104334;28;20487;-72
2021/03/19 10:16:01;;;;;;;8.30;3.60;;;14.10;72.40;;;;;;5102378;28;20047;-73
2021/03/19 10:18:32;;;;;;;8.38;4.00;;;14.00;72.30;;;;;;5096396;28;20060;-72
2021/03/19 10:21:12;;;;;;;12.00;3.63;;;13.90;72.70;;;;;;5102669;28;20033;-73
2021/03/19 10:23:41;;;;;;;5.60;3.47;;;13.90;72.90;;;;;;5104675;28;20122;-72
2021/03/19 10:26:28;;;;;;;13.07;4.75;;;13.80;73.00;;;;;;5100689;28;20031;-72
2021/03/19 10:29:25;;;;;;;8.20;3.40;;;13.80;73.10;;;;;;5102938;27;20428;-72
2021/03/19 10:31:55;;;;;;;12.80;3.50;;;13.70;73.30;;;;;;5103762;28;20137;-73
2021/03/19 10:34:42;;;;;;;6.47;3.10;;;13.80;73.40;;;;;;5098434;28;20462;-72
2021/03/19 10:37:43;;;;;;;25.73;4.88;;;13.80;73.20;;;;;;5103891;28;20028;-72
2021/03/19 10:40:13;;;;;;;4.93;3.33;;;13.90;72.90;;;;;;5102992;28;20066;-73
2021/03/19 10:42:52;;;;;;;8.18;3.35;;;13.80;73.40;;;;;;5100504;28;20055;-72
2021/03/19 10:45:19;;;;;;;10.50;3.47;;;13.80;73.20;;;;;;5099845;28;20110;-72
2021/03/19 10:48:10;;;;;;;9.07;3.95;;;13.80;73.10;;;;;;5098834;28;20107;-72
2021/03/19 10:50:58;;;;;;;11.38;2.88;;;13.80;73.30;;;;;;5103789;28;20031;-72
2021/03/19 10:53:38;;;;;;;8.73;3.63;;;13.80;73.10;;;;;;5100468;28;20028;-72
2021/03/19 10:56:05;;;;;;;12.25;3.88;;;13.90;73.30;;;;;;5097050;28;20024;-73
2021/03/19 10:58:41;;;;;;;8.65;2.53;;;14.00;73.30;;;;;;5095557;28;20365;-72
2021/03/19 11:01:32;;;;;;;7.10;3.30;;;13.90;73.20;;;;;;5102971;28;20060;-72
2021/03/19 11:04:02;;;;;;;9.98;3.05;;;13.80;73.20;;;;;;5102695;28;20456;-72
2021/03/19 11:06:42;;;;;;;8.05;2.90;;;13.80;73.30;;;;;;5103370;28;20039;-72
2021/03/19 11:09:17;;;;;;;14.07;3.17;;;13.70;73.60;;;;;;5103605;28;20787;-72
2021/03/19 11:11:47;;;;;;;10.70;2.83;;;13.80;73.70;;;;;;5100249;28;20023;-72
2021/03/19 11:14:16;;;;;;;6.88;2.88;;;13.80;73.50;;;;;;5098744;28;20035;-72
2021/03/19 11:16:49;;;;;;;9.60;4.00;;;13.90;73.40;;;;;;5102029;28;20039;-72
2021/03/19 11:19:28;;;;;;;10.63;3.40;;;14.00;73.10;;;;;;5103426;28;20039;-72
2021/03/19 11:22:08;;;;;;;10.05;2.97;;;13.90;73.00;;;;;;5099332;28;20549;-72
2021/03/19 11:24:37;;;;;;;7.95;3.45;;;13.80;73.10;;;;;;5101921;28;20032;-73
2021/03/19 11:27:19;;;;;;;4.53;2.53;;;13.80;73.40;;;;;;5102839;28;20020;-72
2021/03/19 11:29:46;;;;;;;11.13;2.90;;;13.70;73.50;;;;;;5102252;28;20327;-72
2021/03/19 11:32:13;;;;;;;7.28;3.17;;;13.70;73.70;;;;;;5100360;28;20022;-73
2021/03/19 11:34:48;;;;;;;5.38;3.78;;;13.70;73.70;;;;;;5102588;28;20051;-73
2021/03/19 11:37:24;;;;;;;8.02;3.47;;;13.80;73.60;;;;;;5100575;28;20039;-73
2021/03/19 11:39:55;;;;;;;11.68;3.38;;;13.80;73.40;;;;;;5097452;28;20031;-72
2021/03/19 11:42:35;;;;;;;14.80;3.55;;;13.80;73.70;;;;;;5100124;28;20035;-72
2021/03/19 11:45:33;;;;;;;7.03;2.65;;;13.80;73.70;;;;;;5097288;28;20032;-73
2021/03/19 11:48:00;;;;;;;6.57;2.67;;;13.80;73.80;;;;;;5099357;28;20074;-72
2021/03/19 11:50:32;;;;;;;6.90;2.22;;;13.80;73.90;;;;;;5098427;28;20025;-73
2021/03/19 11:53:04;;;;;;;4.60;2.50;;;13.90;74.00;;;;;;5099687;28;20442;-73
2021/03/19 11:55:37;;;;;;;;;;;14.00;74.00;;;;;;5099845;28;20123;-73
2021/03/19 11:58:05;;;;;;;7.13;2.58;;;14.00;73.50;;;;;;5102718;28;20296;-76
2021/03/19 12:00:34;;;;;;;6.43;2.83;;;14.20;73.10;;;;;;5099096;28;20119;-73
2021/03/19 12:03:05;;;;;;;15.57;5.78;;;14.10;73.40;;;;;;5096589;28;20237;-72
2021/03/19 12:05:33;;;;;;;8.25;2.92;;;14.10;73.30;;;;;;5096642;28;20032;-72
2021/03/19 12:08:00;;;;;;;5.25;1.98;;;14.10;73.20;;;;;;5100909;28;20080;-73
2021/03/19 12:10:29;;;;;;;8.23;2.60;;;14.00;73.60;;;;;;5100181;28;20053;-72
2021/03/19 12:13:01;;;;;;;6.57;2.65;;;14.10;73.50;;;;;;5101189;28;20064;-72
2021/03/19 12:15:30;;;;;;;7.22;2.38;;;14.00;73.60;;;;;;5098337;28;20024;-73
2021/03/19 12:17:57;;;;;;;5.90;2.25;;;13.90;74.00;;;;;;5101955;28;20365;-73
2021/03/19 12:20:24;;;;;;;15.85;3.40;;;14.00;73.80;;;;;;5093422;28;20042;-72
2021/03/19 12:22:50;;;;;;;6.53;2.35;;;14.00;73.60;;;;;;5101003;28;20627;-72
2021/03/19 12:25:23;;;;;;;4.43;2.53;;;14.00;73.90;;;;;;5098887;28;20457;-72
2021/03/19 12:27:50;;;;;;;6.93;2.58;;;13.90;74.20;;;;;;5103914;28;20084;-72
2021/03/19 12:30:18;;;;;;;10.07;4.00;;;13.90;73.80;;;;;;5103536;28;20020;-72
2021/03/19 12:32:44;;;;;;;9.43;3.05;;;14.00;73.80;;;;;;5102487;28;20020;-72
2021/03/19 12:35:11;;;;;;;4.65;2.15;;;14.00;73.50;;;;;;5103788;28;20028;-72
2021/03/19 12:37:38;;;;;;;5.32;2.88;;;13.90;73.80;;;;;;5104484;28;20357;-72
2021/03/19 12:40:06;;;;;;;7.38;3.00;;;14.00;73.40;;;;;;5107892;28;20025;-73
2021/03/19 12:42:33;;;;;;;6.30;2.58;;;14.00;73.00;;;;;;5101751;28;20497;-72
2021/03/19 12:45:00;;;;;;;7.40;3.88;;;14.10;72.90;;;;;;5100913;28;20452;-72
2021/03/19 12:47:26;;;;;;;7.93;2.42;;;14.00;72.90;;;;;;5104680;28;20028;-72
2021/03/19 12:49:53;;;;;;;7.97;3.25;;;14.00;73.00;;;;;;5102399;28;20035;-72
2021/03/19 12:52:19;;;;;;;11.13;3.15;;;14.00;73.00;;;;;;5103968;28;20139;-72
2021/03/19 12:54:46;;;;;;;8.82;2.95;;;14.00;73.00;;;;;;5104195;28;20034;-73
2021/03/19 12:57:13;;;;;;;10.45;3.15;;;14.00;72.90;;;;;;5104742;28;20032;-72
2021/03/19 12:59:39;;;;;;;5.43;2.92;;;14.00;72.90;;;;;;5105175;28;20020;-72
2021/03/19 13:02:07;;;;;;;9.05;2.60;;;14.00;72.70;;;;;;5104093;28;20024;-73
2021/03/19 13:04:34;;;;;;;6.63;2.53;;;13.90;72.80;;;;;;5103817;28;20039;-72
2021/03/19 13:07:02;;;;;;;14.07;3.42;;;13.90;72.90;;;;;;5105094;28;20027;-71
2021/03/19 13:09:29;;;;;;;6.13;2.30;;;13.80;73.50;;;;;;5101840;28;20103;-71
2021/03/19 13:11:56;;;;;;;4.57;2.05;;;13.80;73.80;;;;;;5099787;28;20515;-72
2021/03/19 13:14:22;;;;;;;3.20;2.35;;;13.80;73.80;;;;;;5104394;28;20024;-71
2021/03/19 13:16:48;;;;;;;9.73;2.85;;;13.80;73.70;;;;;;5104650;28;20085;-71
2021/03/19 13:19:17;;;;;;;7.32;2.70;;;13.80;73.20;;;;;;5102670;28;20075;-71
2021/03/19 13:21:43;;;;;;;5.07;2.80;;;13.80;73.20;;;;;;5101122;28;20063;-71
2021/03/19 13:24:10;;;;;;;6.68;2.00;;;13.80;73.30;;;;;;5098776;28;20533;-71